2016 Cux-Wetter.de -Die Nutzung der Wetterdaten nur mit ausdrcklicher Genehmigung
Wetterdaten: Mittwoch, 30.03.2016
Datum Zeit Temp. A. Feuchte A. Luftdruck Regen Wind Richtung Richtung Sonnenschein Solar Taupunkt Windchill Windben
30.03.2016 00:00 4,1 C 95 % 1005,6 hPa 0,0 l/m 4,8 km/h (1 Bft) S-SO 157 0 min 0 W/m 3,4 C 4,1 C 9,7 km/h (2 Bft)
30.03.2016 00:15 3,9 C 95 % 1005,6 hPa 0,0 l/m 4,8 km/h (1 Bft) S 180 0 min 0 W/m 3,2 C 3,9 C 11,3 km/h (2 Bft)
30.03.2016 00:30 4,0 C 95 % 1005,5 hPa 0,0 l/m 4,8 km/h (1 Bft) S-SO 157 0 min 0 W/m 3,3 C 4,0 C 11,3 km/h (2 Bft)
30.03.2016 00:45 3,9 C 95 % 1005,6 hPa 0,0 l/m 4,8 km/h (1 Bft) S-SO 157 0 min 0 W/m 3,2 C 3,9 C 9,7 km/h (2 Bft)
30.03.2016 01:00 3,7 C 95 % 1005,5 hPa 0,0 l/m 3,2 km/h (1 Bft) S-SO 157 0 min 0 W/m 3,0 C 3,7 C 9,7 km/h (2 Bft)
30.03.2016 01:15 3,7 C 95 % 1005,4 hPa 0,0 l/m 3,2 km/h (1 Bft) S-SO 157 0 min 0 W/m 3,0 C 3,7 C 8,0 km/h (2 Bft)
30.03.2016 01:30 3,8 C 96 % 1005,2 hPa 0,0 l/m 4,8 km/h (1 Bft) S-SO 157 0 min 0 W/m 3,2 C 3,8 C 9,7 km/h (2 Bft)
30.03.2016 01:45 3,8 C 96 % 1005,4 hPa 0,0 l/m 6,4 km/h (2 Bft) S-SO 157 0 min 0 W/m 3,2 C 3,8 C 12,9 km/h (3 Bft)
30.03.2016 02:00 4,1 C 96 % 1005,4 hPa 0,0 l/m 6,4 km/h (2 Bft) S-SO 157 0 min 0 W/m 3,5 C 4,1 C 11,3 km/h (2 Bft)
30.03.2016 02:15 4,2 C 95 % 1005,0 hPa 0,0 l/m 6,4 km/h (2 Bft) S-SO 157 0 min 0 W/m 3,5 C 4,2 C 12,9 km/h (3 Bft)
30.03.2016 02:30 4,2 C 95 % 1004,7 hPa 0,0 l/m 4,8 km/h (1 Bft) SO 135 0 min 0 W/m 3,5 C 4,2 C 11,3 km/h (2 Bft)
30.03.2016 02:45 4,1 C 95 % 1004,2 hPa 0,0 l/m 6,4 km/h (2 Bft) SO 135 0 min 0 W/m 3,4 C 4,1 C 11,3 km/h (2 Bft)
30.03.2016 03:00 4,1 C 95 % 1004,0 hPa 0,0 l/m 4,8 km/h (1 Bft) SO 135 0 min 0 W/m 3,4 C 4,1 C 11,3 km/h (2 Bft)
30.03.2016 03:15 3,9 C 95 % 1003,6 hPa 0,0 l/m 6,4 km/h (2 Bft) SO 135 0 min 0 W/m 3,2 C 3,9 C 16,1 km/h (3 Bft)
30.03.2016 03:30 4,2 C 95 % 1003,7 hPa 0,0 l/m 8,0 km/h (2 Bft) S-SO 157 0 min 0 W/m 3,5 C 2,8 C 17,7 km/h (3 Bft)
30.03.2016 03:45 4,2 C 95 % 1003,5 hPa 0,0 l/m 6,4 km/h (2 Bft) S-SO 157 0 min 0 W/m 3,5 C 4,2 C 16,1 km/h (3 Bft)
30.03.2016 04:00 4,2 C 95 % 1003,6 hPa 0,0 l/m 6,4 km/h (2 Bft) S-SO 157 0 min 0 W/m 3,5 C 4,2 C 12,9 km/h (3 Bft)
30.03.2016 04:15 4,2 C 95 % 1003,6 hPa 0,0 l/m 6,4 km/h (2 Bft) S-SO 157 0 min 0 W/m 3,5 C 4,2 C 16,1 km/h (3 Bft)
30.03.2016 04:30 4,3 C 95 % 1003,0 hPa 0,2 l/m 6,4 km/h (2 Bft) S-SO 157 0 min 0 W/m 3,6 C 4,3 C 14,5 km/h (3 Bft)
30.03.2016 04:45 4,4 C 95 % 1002,8 hPa 0,0 l/m 6,4 km/h (2 Bft) S-SO 157 0 min 0 W/m 3,7 C 4,4 C 14,5 km/h (3 Bft)
30.03.2016 05:00 4,4 C 95 % 1002,6 hPa 0,2 l/m 4,8 km/h (1 Bft) SO 135 0 min 0 W/m 3,7 C 4,4 C 12,9 km/h (3 Bft)
30.03.2016 05:15 4,6 C 96 % 1002,4 hPa 0,4 l/m 8,0 km/h (2 Bft) S-SO 157 0 min 0 W/m 4,0 C 3,2 C 17,7 km/h (3 Bft)
30.03.2016 05:30 4,7 C 96 % 1001,8 hPa 0,6 l/m 8,0 km/h (2 Bft) SO 135 0 min 0 W/m 4,1 C 3,3 C 16,1 km/h (3 Bft)
30.03.2016 05:45 4,8 C 96 % 1001,4 hPa 0,4 l/m 9,7 km/h (2 Bft) SO 135 0 min 0 W/m 4,2 C 2,1 C 19,3 km/h (3 Bft)
30.03.2016 06:00 4,9 C 96 % 1001,2 hPa 0,0 l/m 9,7 km/h (2 Bft) SO 135 0 min 0 W/m 4,3 C 2,2 C 17,7 km/h (3 Bft)
30.03.2016 06:06 4,9 C 96 % 1001,0 hPa 0,0 l/m 10,3 km/h (2 Bft) SO 126 0 min 0 W/m 4,3 C 1,8 C 16,1 km/h (3 Bft)
30.03.2016 06:09 5,0 C 96 % 1001,0 hPa 0,2 l/m 11,7 km/h (2 Bft) O-SO 103 0 min 0 W/m 4,4 C 0,9 C 19,3 km/h (3 Bft)
30.03.2016 06:12 5,0 C 96 % 1000,9 hPa 0,0 l/m 11,9 km/h (2 Bft) O 96 0 min 0 W/m 4,4 C 0,8 C 22,5 km/h (4 Bft)
30.03.2016 06:15 5,0 C 96 % 1000,9 hPa 0,0 l/m 12,8 km/h (3 Bft) S-SO 157 0 min 0 W/m 4,4 C 0,3 C 19,3 km/h (3 Bft)
30.03.2016 06:18 5,1 C 96 % 1000,9 hPa 0,0 l/m 10,2 km/h (2 Bft) S-SW 192 0 min 0 W/m 4,5 C 2,0 C 17,7 km/h (3 Bft)
30.03.2016 06:21 5,1 C 96 % 1001,0 hPa 0,0 l/m 9,4 km/h (2 Bft) S-SO 151 0 min 0 W/m 4,5 C 2,6 C 12,9 km/h (3 Bft)
30.03.2016 06:24 5,1 C 96 % 1001,2 hPa 0,0 l/m 10,9 km/h (2 Bft) S 178 0 min 0 W/m 4,5 C 1,6 C 22,5 km/h (4 Bft)
30.03.2016 06:27 5,1 C 96 % 1001,2 hPa 0,0 l/m 7,0 km/h (2 Bft) S 180 0 min 0 W/m 4,5 C 4,6 C 11,3 km/h (2 Bft)
30.03.2016 06:30 5,1 C 96 % 1001,2 hPa 0,0 l/m 6,3 km/h (2 Bft) S 174 0 min 0 W/m 4,5 C 5,1 C 11,3 km/h (2 Bft)
30.03.2016 06:33 5,1 C 96 % 1001,2 hPa 0,0 l/m 5,9 km/h (2 Bft) S 175 0 min 0 W/m 4,5 C 5,1 C 12,9 km/h (3 Bft)
30.03.2016 06:36 5,1 C 96 % 1001,1 hPa 0,2 l/m 5,3 km/h (1 Bft) S-SO 150 0 min 0 W/m 4,5 C 5,1 C 9,7 km/h (2 Bft)
30.03.2016 06:39 5,1 C 96 % 1001,0 hPa 0,0 l/m 6,3 km/h (2 Bft) S 182 0 min 0 W/m 4,5 C 5,1 C 11,3 km/h (2 Bft)
30.03.2016 06:42 5,2 C 96 % 1001,0 hPa 0,0 l/m 4,9 km/h (1 Bft) S 169 0 min 0 W/m 4,6 C 5,2 C 9,7 km/h (2 Bft)
30.03.2016 06:45 5,2 C 96 % 1001,2 hPa 0,0 l/m 5,1 km/h (1 Bft) S-SW 206 0 min 0 W/m 4,6 C 5,2 C 11,3 km/h (2 Bft)
30.03.2016 06:48 5,2 C 96 % 1001,2 hPa 0,0 l/m 6,2 km/h (2 Bft) SW 223 0 min 0 W/m 4,6 C 5,2 C 11,3 km/h (2 Bft)
30.03.2016 06:51 5,3 C 96 % 1001,2 hPa 0,0 l/m 8,7 km/h (2 Bft) S-SO 159 0 min 0 W/m 4,7 C 3,4 C 16,1 km/h (3 Bft)
30.03.2016 06:54 5,4 C 97 % 1001,1 hPa 0,0 l/m 10,1 km/h (2 Bft) S-SW 194 0 min 0 W/m 5,0 C 2,4 C 17,7 km/h (3 Bft)
30.03.2016 06:57 5,6 C 97 % 1001,1 hPa 0,0 l/m 12,7 km/h (3 Bft) S 190 0 min 0 W/m 5,2 C 1,0 C 22,5 km/h (4 Bft)
30.03.2016 07:00 5,7 C 97 % 1001,0 hPa 0,0 l/m 12,2 km/h (2 Bft) S-SO 167 0 min 0 W/m 5,3 C 1,4 C 20,9 km/h (4 Bft)
30.03.2016 07:03 5,8 C 96 % 1001,0 hPa 0,0 l/m 12,5 km/h (2 Bft) SW 214 0 min 0 W/m 5,2 C 1,4 C 20,9 km/h (4 Bft)
30.03.2016 07:06 5,8 C 96 % 1001,0 hPa 0,0 l/m 12,2 km/h (2 Bft) S 181 0 min 0 W/m 5,2 C 1,6 C 20,9 km/h (4 Bft)
30.03.2016 07:09 5,9 C 96 % 1001,0 hPa 0,0 l/m 12,5 km/h (2 Bft) S 184 0 min 0 W/m 5,3 C 1,5 C 20,9 km/h (4 Bft)
30.03.2016 07:12 5,9 C 96 % 1001,0 hPa 0,0 l/m 13,9 km/h (3 Bft) S 188 0 min 0 W/m 5,3 C 0,7 C 22,5 km/h (4 Bft)
30.03.2016 07:15 6,0 C 96 % 1001,0 hPa 0,0 l/m 12,2 km/h (2 Bft) S-SW 210 0 min 0 W/m 5,4 C 1,8 C 22,5 km/h (4 Bft)
30.03.2016 07:18 6,1 C 96 % 1001,0 hPa 0,0 l/m 10,3 km/h (2 Bft) S 176 0 min 0 W/m 5,5 C 3,1 C 20,9 km/h (4 Bft)
30.03.2016 07:21 6,1 C 96 % 1001,0 hPa 0,0 l/m 13,1 km/h (3 Bft) S-SW 209 0 min 0 W/m 5,5 C 1,4 C 25,7 km/h (4 Bft)
30.03.2016 07:24 6,1 C 96 % 1001,1 hPa 0,0 l/m 14,0 km/h (3 Bft) S-SW 198 0 min 0 W/m 5,5 C 0,9 C 20,9 km/h (4 Bft)
30.03.2016 07:27 6,2 C 96 % 1001,1 hPa 0,0 l/m 15,8 km/h (3 Bft) SW 232 0 min 5 W/m 5,6 C 0,1 C 22,5 km/h (4 Bft)
30.03.2016 07:30 6,3 C 96 % 1001,1 hPa 0,0 l/m 17,6 km/h (3 Bft) S-SW 201 0 min 9 W/m 5,7 C -0,5 C 30,6 km/h (5 Bft)
30.03.2016 07:33 6,4 C 96 % 1001,1 hPa 0,0 l/m 20,1 km/h (4 Bft) SW 228 0 min 5 W/m 5,8 C -1,4 C 29,0 km/h (5 Bft)
30.03.2016 07:36 6,5 C 96 % 1001,1 hPa 0,0 l/m 20,8 km/h (4 Bft) SW 227 0 min 0 W/m 5,9 C -1,5 C 29,0 km/h (5 Bft)
30.03.2016 07:39 6,6 C 96 % 1001,1 hPa 0,0 l/m 17,5 km/h (3 Bft) W-SW 252 0 min 0 W/m 6,0 C -0,1 C 25,7 km/h (4 Bft)
30.03.2016 07:42 6,6 C 96 % 1001,3 hPa 0,0 l/m 17,7 km/h (3 Bft) SW 221 0 min 7 W/m 6,0 C -0,2 C 29,0 km/h (5 Bft)
30.03.2016 07:45 6,7 C 96 % 1001,3 hPa 0,0 l/m 20,3 km/h (4 Bft) S-SW 204 0 min 11 W/m 6,1 C -1,1 C 29,0 km/h (5 Bft)
30.03.2016 07:48 6,7 C 96 % 1001,4 hPa 0,0 l/m 17,1 km/h (3 Bft) SW 234 0 min 16 W/m 6,1 C 0,2 C 24,1 km/h (4 Bft)
30.03.2016 07:51 6,7 C 96 % 1001,4 hPa 0,0 l/m 21,0 km/h (4 Bft) SW 224 0 min 16 W/m 6,1 C -1,3 C 32,2 km/h (5 Bft)
30.03.2016 07:54 6,8 C 95 % 1001,5 hPa 0,0 l/m 20,1 km/h (4 Bft) S-SW 210 0 min 14 W/m 6,1 C -0,9 C 33,8 km/h (5 Bft)
30.03.2016 07:57 6,8 C 95 % 1001,5 hPa 0,0 l/m 20,4 km/h (4 Bft) W-SW 238 0 min 19 W/m 6,1 C -1,0 C 27,4 km/h (5 Bft)
30.03.2016 08:00 6,8 C 95 % 1001,6 hPa 0,2 l/m 19,2 km/h (3 Bft) SW 225 0 min 18 W/m 6,1 C -0,5 C 30,6 km/h (5 Bft)
30.03.2016 08:03 6,8 C 94 % 1001,7 hPa 0,0 l/m 17,5 km/h (3 Bft) S-SW 206 0 min 21 W/m 5,9 C 0,1 C 25,7 km/h (4 Bft)
30.03.2016 08:06 6,9 C 94 % 1001,7 hPa 0,0 l/m 18,2 km/h (3 Bft) SW 224 0 min 16 W/m 6,0 C -0,0 C 27,4 km/h (5 Bft)
30.03.2016 08:09 6,9 C 94 % 1001,7 hPa 0,0 l/m 18,4 km/h (3 Bft) SW 232 0 min 14 W/m 6,0 C -0,1 C 25,7 km/h (4 Bft)
30.03.2016 08:12 6,9 C 94 % 1001,8 hPa 0,0 l/m 17,3 km/h (3 Bft) SW 229 0 min 23 W/m 6,0 C 0,3 C 29,0 km/h (5 Bft)
30.03.2016 08:15 6,9 C 94 % 1001,8 hPa 0,0 l/m 21,2 km/h (4 Bft) SW 217 0 min 25 W/m 6,0 C -1,1 C 33,8 km/h (5 Bft)
30.03.2016 08:18 6,9 C 93 % 1001,9 hPa 0,0 l/m 19,3 km/h (3 Bft) SW 223 0 min 28 W/m 5,8 C -0,5 C 27,4 km/h (5 Bft)
30.03.2016 08:21 6,9 C 93 % 1001,9 hPa 0,0 l/m 17,9 km/h (3 Bft) W-SW 251 0 min 28 W/m 5,8 C 0,1 C 25,7 km/h (4 Bft)
30.03.2016 08:24 6,9 C 93 % 1002,0 hPa 0,0 l/m 17,7 km/h (3 Bft) S-SW 211 0 min 35 W/m 5,8 C 0,2 C 29,0 km/h (5 Bft)
30.03.2016 08:27 6,9 C 93 % 1002,0 hPa 0,0 l/m 21,5 km/h (4 Bft) S-SW 193 0 min 40 W/m 5,8 C -1,3 C 32,2 km/h (5 Bft)
30.03.2016 08:30 6,9 C 92 % 1002,1 hPa 0,0 l/m 18,1 km/h (3 Bft) S-SW 209 0 min 42 W/m 5,7 C 0,0 C 29,0 km/h (5 Bft)
30.03.2016 08:33 6,9 C 92 % 1002,2 hPa 0,0 l/m 18,7 km/h (3 Bft) W-SW 249 0 min 42 W/m 5,7 C -0,2 C 25,7 km/h (4 Bft)
30.03.2016 08:36 6,9 C 92 % 1002,2 hPa 0,0 l/m 19,9 km/h (4 Bft) W-SW 239 0 min 44 W/m 5,7 C -0,7 C 30,6 km/h (5 Bft)
30.03.2016 08:39 6,9 C 92 % 1002,2 hPa 0,0 l/m 20,2 km/h (4 Bft) SW 217 0 min 49 W/m 5,7 C -0,8 C 33,8 km/h (5 Bft)
30.03.2016 08:42 6,8 C 92 % 1002,2 hPa 0,0 l/m 18,1 km/h (3 Bft) SW 216 0 min 63 W/m 5,6 C -0,1 C 35,4 km/h (5 Bft)
30.03.2016 08:45 6,9 C 92 % 1002,3 hPa 0,0 l/m 18,5 km/h (3 Bft) SW 219 0 min 63 W/m 5,7 C -0,1 C 27,4 km/h (5 Bft)
30.03.2016 08:48 6,9 C 92 % 1002,3 hPa 0,0 l/m 16,6 km/h (3 Bft) SW 228 0 min 56 W/m 5,7 C 0,6 C 25,7 km/h (4 Bft)
30.03.2016 08:51 6,9 C 92 % 1002,4 hPa 0,0 l/m 15,7 km/h (3 Bft) W-SW 241 0 min 49 W/m 5,7 C 1,1 C 24,1 km/h (4 Bft)
30.03.2016 08:54 6,9 C 92 % 1002,5 hPa 0,0 l/m 16,6 km/h (3 Bft) SW 234 0 min 62 W/m 5,7 C 0,6 C 27,4 km/h (5 Bft)
30.03.2016 08:57 7,0 C 92 % 1002,5 hPa 0,0 l/m 16,1 km/h (3 Bft) SW 219 0 min 76 W/m 5,8 C 1,0 C 29,0 km/h (5 Bft)
30.03.2016 09:00 7,1 C 92 % 1002,5 hPa 0,0 l/m 15,7 km/h (3 Bft) SW 229 0 min 77 W/m 5,9 C 1,3 C 29,0 km/h (5 Bft)
30.03.2016 09:03 7,1 C 91 % 1002,5 hPa 0,0 l/m 17,7 km/h (3 Bft) W-SW 237 0 min 72 W/m 5,7 C 0,4 C 25,7 km/h (4 Bft)
30.03.2016 09:06 7,1 C 91 % 1002,5 hPa 0,0 l/m 18,6 km/h (3 Bft) SW 229 0 min 79 W/m 5,7 C 0,1 C 30,6 km/h (5 Bft)
30.03.2016 09:09 7,1 C 91 % 1002,5 hPa 0,0 l/m 17,0 km/h (3 Bft) W-SW 252 0 min 79 W/m 5,7 C 0,7 C 27,4 km/h (5 Bft)
30.03.2016 09:12 7,1 C 91 % 1002,6 hPa 0,0 l/m 18,3 km/h (3 Bft) SW 226 0 min 86 W/m 5,7 C 0,2 C 25,7 km/h (4 Bft)
30.03.2016 09:15 7,1 C 91 % 1002,7 hPa 0,0 l/m 18,0 km/h (3 Bft) W 265 0 min 81 W/m 5,7 C 0,3 C 29,0 km/h (5 Bft)
30.03.2016 09:18 7,1 C 91 % 1002,7 hPa 0,0 l/m 20,9 km/h (4 Bft) S-SW 197 0 min 72 W/m 5,7 C -0,8 C 35,4 km/h (5 Bft)
30.03.2016 09:21 7,1 C 91 % 1002,7 hPa 0,0 l/m 15,9 km/h (3 Bft) S 179 0 min 53 W/m 5,7 C 1,2 C 27,4 km/h (5 Bft)
30.03.2016 09:24 7,0 C 90 % 1002,8 hPa 0,0 l/m 17,1 km/h (3 Bft) SW 230 0 min 98 W/m 5,5 C 0,6 C 27,4 km/h (5 Bft)
30.03.2016 09:27 7,1 C 90 % 1002,8 hPa 0,0 l/m 18,7 km/h (3 Bft) SW 215 0 min 102 W/m 5,6 C 0,0 C 27,4 km/h (5 Bft)
30.03.2016 09:30 7,1 C 89 % 1002,8 hPa 0,0 l/m 23,3 km/h (4 Bft) S-SW 212 0 min 83 W/m 5,4 C -1,6 C 32,2 km/h (5 Bft)
30.03.2016 09:33 7,1 C 89 % 1002,9 hPa 0,0 l/m 21,9 km/h (4 Bft) W-SW 256 0 min 83 W/m 5,4 C -1,1 C 33,8 km/h (5 Bft)
30.03.2016 09:36 7,1 C 89 % 1002,9 hPa 0,0 l/m 19,8 km/h (3 Bft) W 266 0 min 98 W/m 5,4 C -0,4 C 30,6 km/h (5 Bft)
30.03.2016 09:39 7,1 C 89 % 1003,0 hPa 0,0 l/m 20,6 km/h (4 Bft) W-SW 257 0 min 111 W/m 5,4 C -0,7 C 32,2 km/h (5 Bft)
30.03.2016 09:42 7,1 C 89 % 1002,9 hPa 0,0 l/m 21,3 km/h (4 Bft) W-SW 254 0 min 120 W/m 5,4 C -0,9 C 30,6 km/h (5 Bft)
30.03.2016 09:45 7,2 C 89 % 1003,0 hPa 0,0 l/m 21,4 km/h (4 Bft) W-SW 240 0 min 121 W/m 5,5 C -0,8 C 30,6 km/h (5 Bft)
30.03.2016 09:48 7,2 C 89 % 1003,2 hPa 0,0 l/m 20,9 km/h (4 Bft) SW 219 0 min 121 W/m 5,5 C -0,7 C 33,8 km/h (5 Bft)
30.03.2016 09:51 7,3 C 88 % 1003,1 hPa 0,0 l/m 20,9 km/h (4 Bft) W 260 0 min 102 W/m 5,4 C -0,5 C 30,6 km/h (5 Bft)
30.03.2016 09:54 7,3 C 88 % 1003,2 hPa 0,0 l/m 22,5 km/h (4 Bft) SW 219 0 min 51 W/m 5,4 C -1,1 C 37,0 km/h (5 Bft)
30.03.2016 09:57 7,3 C 88 % 1003,2 hPa 0,0 l/m 20,4 km/h (4 Bft) W-SW 243 0 min 116 W/m 5,4 C -0,3 C 32,2 km/h (5 Bft)
30.03.2016 10:00 7,4 C 88 % 1003,3 hPa 0,0 l/m 19,2 km/h (3 Bft) W 269 0 min 84 W/m 5,5 C 0,2 C 27,4 km/h (5 Bft)
30.03.2016 10:03 7,4 C 87 % 1003,3 hPa 0,0 l/m 22,7 km/h (4 Bft) W 263 0 min 49 W/m 5,4 C -1,0 C 38,6 km/h (6 Bft)
30.03.2016 10:06 7,4 C 87 % 1003,3 hPa 0,0 l/m 19,5 km/h (3 Bft) SW 236 0 min 62 W/m 5,4 C 0,1 C 30,6 km/h (5 Bft)
30.03.2016 10:09 7,6 C 88 % 1003,4 hPa 0,0 l/m 18,3 km/h (3 Bft) SW 236 0 min 54 W/m 5,7 C 0,8 C 30,6 km/h (5 Bft)
30.03.2016 10:12 7,7 C 87 % 1003,4 hPa 0,0 l/m 20,5 km/h (4 Bft) SW 221 0 min 69 W/m 5,7 C 0,1 C 35,4 km/h (5 Bft)
30.03.2016 10:15 7,8 C 87 % 1003,5 hPa 0,0 l/m 22,8 km/h (4 Bft) W-SW 250 0 min 60 W/m 5,8 C -0,5 C 33,8 km/h (5 Bft)
30.03.2016 10:18 7,8 C 86 % 1003,5 hPa 0,0 l/m 23,2 km/h (4 Bft) W-SW 252 0 min 88 W/m 5,6 C -0,6 C 37,0 km/h (5 Bft)
30.03.2016 10:21 7,8 C 86 % 1003,6 hPa 0,0 l/m 22,2 km/h (4 Bft) SW 232 0 min 60 W/m 5,6 C -0,3 C 33,8 km/h (5 Bft)
30.03.2016 10:24 7,8 C 86 % 1003,6 hPa 0,0 l/m 21,8 km/h (4 Bft) SW 220 0 min 86 W/m 5,6 C -0,2 C 33,8 km/h (5 Bft)
30.03.2016 10:27 7,8 C 85 % 1003,6 hPa 0,0 l/m 23,4 km/h (4 Bft) SW 229 0 min 116 W/m 5,4 C -0,7 C 37,0 km/h (5 Bft)
30.03.2016 10:30 7,8 C 85 % 1003,7 hPa 0,0 l/m 21,2 km/h (4 Bft) W 275 3 min 304 W/m 5,4 C 0,0 C 33,8 km/h (5 Bft)
30.03.2016 10:33 7,9 C 85 % 1003,7 hPa 0,0 l/m 18,1 km/h (3 Bft) SW 219 0 min 111 W/m 5,5 C 1,3 C 27,4 km/h (5 Bft)
30.03.2016 10:36 7,8 C 84 % 1003,8 hPa 0,0 l/m 21,0 km/h (4 Bft) W 281 0 min 144 W/m 5,3 C 0,1 C 40,2 km/h (6 Bft)
30.03.2016 10:39 7,8 C 84 % 1003,9 hPa 0,0 l/m 22,3 km/h (4 Bft) S-SW 204 0 min 127 W/m 5,3 C -0,3 C 37,0 km/h (5 Bft)
30.03.2016 10:42 7,7 C 84 % 1003,8 hPa 0,0 l/m 21,3 km/h (4 Bft) SW 227 0 min 134 W/m 5,2 C -0,1 C 33,8 km/h (5 Bft)
30.03.2016 10:45 7,7 C 84 % 1003,9 hPa 0,0 l/m 22,4 km/h (4 Bft) W-SW 239 0 min 139 W/m 5,2 C -0,5 C 37,0 km/h (5 Bft)
30.03.2016 10:48 7,7 C 85 % 1003,9 hPa 0,0 l/m 16,0 km/h (3 Bft) W 259 0 min 128 W/m 5,3 C 1,9 C 29,0 km/h (5 Bft)
30.03.2016 10:51 7,9 C 85 % 1004,0 hPa 0,0 l/m 15,8 km/h (3 Bft) SW 218 3 min 450 W/m 5,5 C 2,2 C 22,5 km/h (4 Bft)
30.03.2016 10:54 8,1 C 82 % 1004,0 hPa 0,0 l/m 18,8 km/h (3 Bft) SW 220 3 min 459 W/m 5,2 C 1,3 C 30,6 km/h (5 Bft)
30.03.2016 10:57 8,3 C 81 % 1004,0 hPa 0,0 l/m 18,6 km/h (3 Bft) SW 227 3 min 461 W/m 5,2 C 1,6 C 33,8 km/h (5 Bft)
30.03.2016 11:00 8,4 C 80 % 1004,1 hPa 0,0 l/m 20,0 km/h (4 Bft) W-SW 242 3 min 489 W/m 5,2 C 1,2 C 33,8 km/h (5 Bft)
30.03.2016 11:03 8,7 C 80 % 1004,1 hPa 0,0 l/m 19,4 km/h (3 Bft) S 185 3 min 570 W/m 5,4 C 1,8 C 30,6 km/h (5 Bft)
30.03.2016 11:06 8,5 C 79 % 1004,2 hPa 0,0 l/m 23,4 km/h (4 Bft) W-SW 242 0 min 171 W/m 5,1 C 0,3 C 35,4 km/h (5 Bft)
30.03.2016 11:09 8,3 C 78 % 1004,3 hPa 0,0 l/m 21,9 km/h (4 Bft) S-SW 200 0 min 230 W/m 4,7 C 0,5 C 32,2 km/h (5 Bft)
30.03.2016 11:12 8,2 C 78 % 1004,3 hPa 0,0 l/m 19,4 km/h (3 Bft) W-SW 251 3 min 308 W/m 4,6 C 1,2 C 33,8 km/h (5 Bft)
30.03.2016 11:15 8,4 C 77 % 1004,4 hPa 0,0 l/m 21,5 km/h (4 Bft) S-SW 203 0 min 248 W/m 4,6 C 0,7 C 32,2 km/h (5 Bft)
30.03.2016 11:18 8,6 C 77 % 1004,4 hPa 0,0 l/m 19,6 km/h (3 Bft) SW 229 0 min 216 W/m 4,8 C 1,6 C 32,2 km/h (5 Bft)
30.03.2016 11:21 8,6 C 74 % 1004,4 hPa 0,0 l/m 20,8 km/h (4 Bft) W-SW 240 0 min 206 W/m 4,2 C 1,2 C 33,8 km/h (5 Bft)
30.03.2016 11:24 8,6 C 74 % 1004,5 hPa 0,0 l/m 18,6 km/h (3 Bft) SW 220 0 min 118 W/m 4,2 C 2,0 C 40,2 km/h (6 Bft)
30.03.2016 11:27 8,4 C 76 % 1004,6 hPa 0,0 l/m 21,8 km/h (4 Bft) W-SW 250 0 min 243 W/m 4,4 C 0,6 C 38,6 km/h (6 Bft)
30.03.2016 11:30 8,5 C 78 % 1004,7 hPa 0,0 l/m 14,5 km/h (3 Bft) W-NW 293 0 min 165 W/m 4,9 C 3,5 C 32,2 km/h (5 Bft)
30.03.2016 11:33 8,5 C 76 % 1004,7 hPa 0,0 l/m 16,0 km/h (3 Bft) S-SW 208 0 min 97 W/m 4,5 C 2,9 C 25,7 km/h (4 Bft)
30.03.2016 11:36 8,4 C 76 % 1004,7 hPa 0,0 l/m 19,5 km/h (3 Bft) W 281 0 min 60 W/m 4,4 C 1,4 C 46,7 km/h (6 Bft)
30.03.2016 11:39 8,2 C 77 % 1004,7 hPa 0,0 l/m 19,3 km/h (3 Bft) W 261 0 min 114 W/m 4,4 C 1,2 C 29,0 km/h (5 Bft)
30.03.2016 11:42 8,3 C 78 % 1004,7 hPa 0,0 l/m 15,8 km/h (3 Bft) W 260 3 min 489 W/m 4,7 C 2,7 C 30,6 km/h (5 Bft)
30.03.2016 11:45 8,8 C 78 % 1004,6 hPa 0,0 l/m 18,9 km/h (3 Bft) W 268 0 min 243 W/m 5,2 C 2,1 C 33,8 km/h (5 Bft)
30.03.2016 11:48 8,8 C 73 % 1004,7 hPa 0,0 l/m 20,7 km/h (4 Bft) W-SW 251 0 min 128 W/m 4,2 C 1,5 C 35,4 km/h (5 Bft)
30.03.2016 11:51 8,7 C 73 % 1004,8 hPa 0,0 l/m 17,4 km/h (3 Bft) SW 235 0 min 172 W/m 4,1 C 2,6 C 32,2 km/h (5 Bft)
30.03.2016 11:54 8,7 C 75 % 1004,8 hPa 0,0 l/m 15,2 km/h (3 Bft) W-SW 239 0 min 193 W/m 4,5 C 3,5 C 30,6 km/h (5 Bft)
30.03.2016 11:57 8,9 C 76 % 1004,8 hPa 0,0 l/m 14,5 km/h (3 Bft) W-SW 258 0 min 281 W/m 4,9 C 4,0 C 29,0 km/h (5 Bft)
30.03.2016 12:00 9,2 C 76 % 1004,8 hPa 0,0 l/m 11,3 km/h (2 Bft) S-SW 194 0 min 209 W/m 5,2 C 6,0 C 19,3 km/h (3 Bft)
30.03.2016 12:03 9,3 C 74 % 1004,8 hPa 0,0 l/m 18,2 km/h (3 Bft) SW 223 0 min 199 W/m 4,9 C 3,0 C 32,2 km/h (5 Bft)
30.03.2016 12:06 9,0 C 73 % 1004,8 hPa 0,0 l/m 19,9 km/h (4 Bft) SW 225 3 min 619 W/m 4,4 C 2,0 C 35,4 km/h (5 Bft)
30.03.2016 12:09 9,4 C 73 % 1004,8 hPa 0,0 l/m 16,5 km/h (3 Bft) W-SW 246 3 min 601 W/m 4,8 C 3,8 C 38,6 km/h (6 Bft)
30.03.2016 12:12 9,7 C 71 % 1004,9 hPa 0,0 l/m 20,0 km/h (4 Bft) SW 214 3 min 640 W/m 4,7 C 2,9 C 33,8 km/h (5 Bft)
30.03.2016 12:15 9,7 C 72 % 1004,8 hPa 0,0 l/m 16,9 km/h (3 Bft) W-SW 240 3 min 640 W/m 4,9 C 4,0 C 29,0 km/h (5 Bft)
30.03.2016 12:18 9,6 C 74 % 1004,9 hPa 0,0 l/m 17,0 km/h (3 Bft) SW 222 3 min 622 W/m 5,2 C 3,8 C 30,6 km/h (5 Bft)
30.03.2016 12:21 9,9 C 73 % 1004,8 hPa 0,0 l/m 18,7 km/h (3 Bft) SW 235 3 min 687 W/m 5,3 C 3,6 C 30,6 km/h (5 Bft)
30.03.2016 12:24 10,0 C 71 % 1004,9 hPa 0,0 l/m 19,4 km/h (3 Bft) SW 234 3 min 751 W/m 5,0 C 3,5 C 38,6 km/h (6 Bft)
30.03.2016 12:27 9,9 C 72 % 1004,9 hPa 0,0 l/m 18,2 km/h (3 Bft) S-SW 209 0 min 171 W/m 5,1 C 3,8 C 32,2 km/h (5 Bft)
30.03.2016 12:30 9,6 C 72 % 1004,9 hPa 0,0 l/m 15,1 km/h (3 Bft) W-NW 283 0 min 278 W/m 4,8 C 4,6 C 24,1 km/h (4 Bft)
30.03.2016 12:33 9,4 C 73 % 1004,9 hPa 0,0 l/m 19,5 km/h (3 Bft) S-SW 209 0 min 185 W/m 4,8 C 2,7 C 33,8 km/h (5 Bft)
30.03.2016 12:36 9,3 C 73 % 1004,9 hPa 0,0 l/m 17,3 km/h (3 Bft) SW 232 0 min 234 W/m 4,7 C 3,3 C 37,0 km/h (5 Bft)
30.03.2016 12:39 9,4 C 74 % 1004,8 hPa 0,0 l/m 17,1 km/h (3 Bft) W-SW 241 0 min 190 W/m 5,0 C 3,6 C 27,4 km/h (5 Bft)
30.03.2016 12:42 9,8 C 75 % 1004,9 hPa 0,0 l/m 15,3 km/h (3 Bft) SW 227 3 min 749 W/m 5,6 C 4,8 C 29,0 km/h (5 Bft)
30.03.2016 12:45 9,9 C 71 % 1004,9 hPa 0,0 l/m 17,2 km/h (3 Bft) W-SW 238 0 min 171 W/m 4,9 C 4,1 C 27,4 km/h (5 Bft)
30.03.2016 12:48 9,8 C 73 % 1004,9 hPa 0,0 l/m 15,0 km/h (3 Bft) SW 235 0 min 74 W/m 5,2 C 4,9 C 25,7 km/h (4 Bft)
30.03.2016 12:51 9,7 C 76 % 1004,9 hPa 0,0 l/m 13,7 km/h (3 Bft) W-SW 252 0 min 169 W/m 5,7 C 5,3 C 25,7 km/h (4 Bft)
30.03.2016 12:54 9,6 C 75 % 1004,9 hPa 0,0 l/m 13,0 km/h (3 Bft) S-SW 206 0 min 274 W/m 5,4 C 5,6 C 25,7 km/h (4 Bft)
30.03.2016 12:57 9,9 C 74 % 1005,0 hPa 0,0 l/m 12,6 km/h (3 Bft) W-SW 248 0 min 248 W/m 5,5 C 6,1 C 24,1 km/h (4 Bft)
30.03.2016 13:00 9,9 C 74 % 1004,9 hPa 0,0 l/m 14,9 km/h (3 Bft) W-SW 244 0 min 258 W/m 5,5 C 5,1 C 24,1 km/h (4 Bft)
30.03.2016 13:03 9,9 C 72 % 1005,0 hPa 0,0 l/m 16,6 km/h (3 Bft) W-SW 238 0 min 169 W/m 5,1 C 4,4 C 30,6 km/h (5 Bft)
30.03.2016 13:06 9,8 C 72 % 1005,0 hPa 0,0 l/m 19,3 km/h (3 Bft) SW 226 0 min 104 W/m 5,0 C 3,3 C 29,0 km/h (5 Bft)
30.03.2016 13:09 9,6 C 72 % 1005,1 hPa 0,0 l/m 15,3 km/h (3 Bft) W-SW 247 0 min 118 W/m 4,8 C 4,5 C 24,1 km/h (4 Bft)
30.03.2016 13:12 9,4 C 74 % 1005,0 hPa 0,0 l/m 12,4 km/h (2 Bft) W 265 0 min 81 W/m 5,0 C 5,6 C 20,9 km/h (4 Bft)
30.03.2016 13:15 9,4 C 75 % 1005,1 hPa 0,0 l/m 12,1 km/h (2 Bft) W-SW 255 0 min 121 W/m 5,2 C 5,8 C 29,0 km/h (5 Bft)
30.03.2016 13:18 9,4 C 74 % 1005,0 hPa 0,0 l/m 14,9 km/h (3 Bft) W-SW 250 0 min 65 W/m 5,0 C 4,5 C 22,5 km/h (4 Bft)
30.03.2016 13:21 9,3 C 75 % 1005,0 hPa 0,0 l/m 14,9 km/h (3 Bft) W-SW 240 0 min 79 W/m 5,1 C 4,3 C 25,7 km/h (4 Bft)
30.03.2016 13:24 9,2 C 74 % 1005,1 hPa 0,0 l/m 14,7 km/h (3 Bft) W-SW 237 0 min 46 W/m 4,8 C 4,3 C 25,7 km/h (4 Bft)
30.03.2016 13:27 9,1 C 76 % 1005,1 hPa 0,0 l/m 12,3 km/h (2 Bft) W 259 0 min 72 W/m 5,1 C 5,3 C 19,3 km/h (3 Bft)
30.03.2016 13:30 9,0 C 77 % 1005,1 hPa 0,0 l/m 10,4 km/h (2 Bft) SW 225 0 min 40 W/m 5,2 C 6,3 C 17,7 km/h (3 Bft)
30.03.2016 13:33 8,9 C 80 % 1005,2 hPa 0,0 l/m 12,3 km/h (2 Bft) W-SW 238 0 min 42 W/m 5,6 C 5,1 C 22,5 km/h (4 Bft)
30.03.2016 13:36 8,7 C 79 % 1005,2 hPa 0,0 l/m 15,7 km/h (3 Bft) W-SW 257 0 min 37 W/m 5,3 C 3,3 C 27,4 km/h (5 Bft)
30.03.2016 13:39 8,3 C 81 % 1005,4 hPa 0,0 l/m 20,7 km/h (4 Bft) SW 219 0 min 44 W/m 5,2 C 0,9 C 43,5 km/h (6 Bft)
30.03.2016 13:42 7,8 C 84 % 1005,4 hPa 0,2 l/m 20,1 km/h (4 Bft) W-SW 246 0 min 51 W/m 5,3 C 0,4 C 29,0 km/h (5 Bft)
30.03.2016 13:45 7,4 C 86 % 1005,4 hPa 0,0 l/m 16,6 km/h (3 Bft) W-SW 244 0 min 188 W/m 5,2 C 1,3 C 29,0 km/h (5 Bft)
30.03.2016 13:48 7,3 C 88 % 1005,4 hPa 0,2 l/m 15,3 km/h (3 Bft) W-SW 248 3 min 406 W/m 5,4 C 1,7 C 27,4 km/h (5 Bft)
30.03.2016 13:51 7,8 C 89 % 1005,4 hPa 0,0 l/m 14,7 km/h (3 Bft) W 266 3 min 636 W/m 6,1 C 2,6 C 27,4 km/h (5 Bft)
30.03.2016 13:54 8,7 C 89 % 1005,4 hPa 0,0 l/m 14,9 km/h (3 Bft) W 267 3 min 671 W/m 7,0 C 3,6 C 24,1 km/h (4 Bft)
30.03.2016 13:57 9,1 C 84 % 1005,5 hPa 0,0 l/m 15,2 km/h (3 Bft) W-SW 251 3 min 496 W/m 6,5 C 4,0 C 27,4 km/h (5 Bft)
30.03.2016 14:00 9,0 C 83 % 1005,5 hPa 0,0 l/m 18,3 km/h (3 Bft) W-SW 252 0 min 243 W/m 6,3 C 2,6 C 27,4 km/h (5 Bft)
30.03.2016 14:03 9,2 C 85 % 1005,5 hPa 0,0 l/m 16,8 km/h (3 Bft) S-SW 213 0 min 243 W/m 6,8 C 3,4 C 25,7 km/h (4 Bft)
30.03.2016 14:06 9,2 C 81 % 1005,5 hPa 0,0 l/m 15,3 km/h (3 Bft) W 259 3 min 343 W/m 6,1 C 4,0 C 27,4 km/h (5 Bft)
30.03.2016 14:09 9,0 C 83 % 1005,5 hPa 0,0 l/m 10,8 km/h (2 Bft) W 261 3 min 621 W/m 6,3 C 6,0 C 20,9 km/h (4 Bft)
30.03.2016 14:12 9,5 C 80 % 1005,5 hPa 0,0 l/m 17,3 km/h (3 Bft) W-SW 245 3 min 663 W/m 6,2 C 3,6 C 30,6 km/h (5 Bft)
30.03.2016 14:15 9,6 C 80 % 1005,4 hPa 0,0 l/m 19,3 km/h (3 Bft) S 188 3 min 629 W/m 6,3 C 3,0 C 32,2 km/h (5 Bft)
30.03.2016 14:18 9,8 C 80 % 1005,5 hPa 0,0 l/m 18,3 km/h (3 Bft) W-NW 284 3 min 598 W/m 6,5 C 3,6 C 29,0 km/h (5 Bft)
30.03.2016 14:21 10,2 C 77 % 1005,4 hPa 0,0 l/m 15,0 km/h (3 Bft) W-SW 244 3 min 573 W/m 6,4 C 5,4 C 24,1 km/h (4 Bft)
30.03.2016 14:24 10,2 C 77 % 1005,4 hPa 0,0 l/m 13,4 km/h (3 Bft) W-SW 242 3 min 573 W/m 6,4 C 6,1 C 24,1 km/h (4 Bft)
30.03.2016 14:27 9,8 C 78 % 1005,5 hPa 0,0 l/m 18,2 km/h (3 Bft) W-SW 256 0 min 236 W/m 6,1 C 3,6 C 27,4 km/h (5 Bft)
30.03.2016 14:30 9,7 C 80 % 1005,5 hPa 0,0 l/m 11,5 km/h (2 Bft) SW 236 0 min 116 W/m 6,4 C 6,4 C 20,9 km/h (4 Bft)
30.03.2016 14:33 9,6 C 80 % 1005,6 hPa 0,0 l/m 11,5 km/h (2 Bft) SW 227 0 min 25 W/m 6,3 C 6,3 C 19,3 km/h (3 Bft)
30.03.2016 14:36 9,4 C 80 % 1005,8 hPa 0,0 l/m 19,6 km/h (3 Bft) W-SW 256 0 min 72 W/m 6,1 C 2,6 C 38,6 km/h (6 Bft)
30.03.2016 14:39 8,8 C 82 % 1005,7 hPa 0,0 l/m 20,6 km/h (4 Bft) W 273 0 min 125 W/m 5,9 C 1,5 C 45,1 km/h (6 Bft)
30.03.2016 14:42 8,2 C 83 % 1005,6 hPa 0,0 l/m 16,2 km/h (3 Bft) W-NW 288 0 min 84 W/m 5,5 C 2,4 C 30,6 km/h (5 Bft)
30.03.2016 14:45 7,8 C 84 % 1005,6 hPa 0,0 l/m 13,4 km/h (3 Bft) W-SW 243 0 min 90 W/m 5,3 C 3,2 C 20,9 km/h (4 Bft)
30.03.2016 14:48 8,1 C 86 % 1005,5 hPa 0,0 l/m 12,5 km/h (2 Bft) W-NW 289 0 min 206 W/m 5,9 C 4,1 C 24,1 km/h (4 Bft)
30.03.2016 14:51 8,4 C 85 % 1005,6 hPa 0,0 l/m 15,4 km/h (3 Bft) W-SW 248 0 min 130 W/m 6,0 C 3,0 C 22,5 km/h (4 Bft)
30.03.2016 14:54 8,5 C 83 % 1005,6 hPa 0,0 l/m 15,8 km/h (3 Bft) W-NW 296 0 min 165 W/m 5,8 C 3,0 C 24,1 km/h (4 Bft)
30.03.2016 14:57 8,5 C 83 % 1005,6 hPa 0,0 l/m 18,2 km/h (3 Bft) S-SW 208 0 min 51 W/m 5,8 C 2,0 C 25,7 km/h (4 Bft)
30.03.2016 15:00 8,4 C 83 % 1005,7 hPa 0,0 l/m 15,9 km/h (3 Bft) W 267 0 min 114 W/m 5,7 C 2,8 C 29,0 km/h (5 Bft)
30.03.2016 15:03 8,5 C 84 % 1005,7 hPa 0,0 l/m 14,7 km/h (3 Bft) W-SW 250 0 min 128 W/m 6,0 C 3,5 C 25,7 km/h (4 Bft)
30.03.2016 15:06 8,6 C 83 % 1005,7 hPa 0,0 l/m 13,9 km/h (3 Bft) SW 225 0 min 130 W/m 5,9 C 3,9 C 25,7 km/h (4 Bft)
30.03.2016 15:09 9,0 C 83 % 1005,7 hPa 0,0 l/m 16,7 km/h (3 Bft) W-NW 296 3 min 582 W/m 6,3 C 3,2 C 25,7 km/h (4 Bft)
30.03.2016 15:12 9,3 C 80 % 1005,7 hPa 0,0 l/m 16,5 km/h (3 Bft) S-SW 213 0 min 188 W/m 6,0 C 3,7 C 24,1 km/h (4 Bft)
30.03.2016 15:15 9,6 C 80 % 1005,7 hPa 0,0 l/m 13,0 km/h (3 Bft) W 280 3 min 570 W/m 6,3 C 5,6 C 20,9 km/h (4 Bft)
30.03.2016 15:18 10,4 C 78 % 1005,7 hPa 0,0 l/m 13,7 km/h (3 Bft) W 263 3 min 571 W/m 6,7 C 6,2 C 27,4 km/h (5 Bft)
30.03.2016 15:21 10,2 C 76 % 1005,6 hPa 0,0 l/m 15,2 km/h (3 Bft) W-SW 244 3 min 570 W/m 6,2 C 5,3 C 29,0 km/h (5 Bft)
30.03.2016 15:24 10,4 C 76 % 1005,8 hPa 0,0 l/m 19,5 km/h (3 Bft) W 267 3 min 573 W/m 6,4 C 4,0 C 32,2 km/h (5 Bft)
30.03.2016 15:27 10,9 C 75 % 1005,8 hPa 0,0 l/m 15,1 km/h (3 Bft) SW 219 3 min 570 W/m 6,6 C 6,2 C 29,0 km/h (5 Bft)
30.03.2016 15:30 10,7 C 76 % 1005,7 hPa 0,0 l/m 10,4 km/h (2 Bft) W 275 3 min 563 W/m 6,6 C 8,1 C 25,7 km/h (4 Bft)
30.03.2016 15:33 10,7 C 74 % 1005,8 hPa 0,0 l/m 16,1 km/h (3 Bft) W-SW 241 3 min 563 W/m 6,3 C 5,5 C 27,4 km/h (5 Bft)
30.03.2016 15:36 10,9 C 72 % 1005,8 hPa 0,0 l/m 17,6 km/h (3 Bft) SW 233 3 min 559 W/m 6,1 C 5,2 C 33,8 km/h (5 Bft)
30.03.2016 15:39 10,7 C 72 % 1005,9 hPa 0,0 l/m 15,4 km/h (3 Bft) W-NW 303 3 min 554 W/m 5,9 C 5,8 C 22,5 km/h (4 Bft)
30.03.2016 15:42 10,8 C 72 % 1005,9 hPa 0,0 l/m 18,3 km/h (3 Bft) W-SW 257 3 min 548 W/m 6,0 C 4,9 C 33,8 km/h (5 Bft)
30.03.2016 15:45 10,5 C 72 % 1005,9 hPa 0,0 l/m 18,2 km/h (3 Bft) S-SW 207 3 min 545 W/m 5,7 C 4,5 C 27,4 km/h (5 Bft)
30.03.2016 15:48 10,6 C 72 % 1005,9 hPa 0,0 l/m 16,5 km/h (3 Bft) W 261 3 min 540 W/m 5,8 C 5,3 C 30,6 km/h (5 Bft)
30.03.2016 15:51 10,8 C 72 % 1005,9 hPa 0,0 l/m 18,2 km/h (3 Bft) W-SW 241 3 min 538 W/m 6,0 C 4,9 C 30,6 km/h (5 Bft)
30.03.2016 15:54 10,7 C 71 % 1006,0 hPa 0,0 l/m 15,4 km/h (3 Bft) W-NW 284 3 min 533 W/m 5,7 C 5,8 C 32,2 km/h (5 Bft)
30.03.2016 15:57 10,6 C 72 % 1006,0 hPa 0,0 l/m 19,2 km/h (3 Bft) W 261 3 min 529 W/m 5,8 C 4,3 C 32,2 km/h (5 Bft)
30.03.2016 16:00 10,4 C 71 % 1006,0 hPa 0,0 l/m 20,3 km/h (4 Bft) W-SW 255 3 min 524 W/m 5,4 C 3,7 C 33,8 km/h (5 Bft)
30.03.2016 16:03 10,4 C 72 % 1006,1 hPa 0,0 l/m 20,2 km/h (4 Bft) W-SW 240 3 min 520 W/m 5,6 C 3,7 C 33,8 km/h (5 Bft)
30.03.2016 16:06 10,4 C 72 % 1006,1 hPa 0,0 l/m 20,9 km/h (4 Bft) W-SW 257 3 min 515 W/m 5,6 C 3,5 C 38,6 km/h (6 Bft)
30.03.2016 16:09 10,6 C 71 % 1006,1 hPa 0,0 l/m 19,0 km/h (3 Bft) W 267 3 min 508 W/m 5,6 C 4,4 C 33,8 km/h (5 Bft)
30.03.2016 16:12 10,7 C 71 % 1006,1 hPa 0,0 l/m 18,6 km/h (3 Bft) W-SW 242 3 min 503 W/m 5,7 C 4,6 C 32,2 km/h (5 Bft)
30.03.2016 16:15 10,6 C 72 % 1006,1 hPa 0,0 l/m 16,4 km/h (3 Bft) W-NW 283 3 min 499 W/m 5,8 C 5,3 C 30,6 km/h (5 Bft)
30.03.2016 16:18 11,1 C 72 % 1006,1 hPa 0,0 l/m 14,7 km/h (3 Bft) W-SW 246 3 min 494 W/m 6,2 C 6,6 C 29,0 km/h (5 Bft)
30.03.2016 16:21 10,7 C 71 % 1006,1 hPa 0,0 l/m 20,6 km/h (4 Bft) W 265 3 min 489 W/m 5,7 C 4,0 C 32,2 km/h (5 Bft)
30.03.2016 16:24 10,4 C 72 % 1006,1 hPa 0,0 l/m 16,9 km/h (3 Bft) W 260 3 min 483 W/m 5,6 C 4,9 C 33,8 km/h (5 Bft)
30.03.2016 16:27 10,6 C 72 % 1006,2 hPa 0,0 l/m 13,8 km/h (3 Bft) SW 217 3 min 480 W/m 5,8 C 6,4 C 25,7 km/h (4 Bft)
30.03.2016 16:30 10,6 C 73 % 1006,1 hPa 0,0 l/m 16,8 km/h (3 Bft) W-NW 292 3 min 469 W/m 6,0 C 5,2 C 30,6 km/h (5 Bft)
30.03.2016 16:33 10,4 C 73 % 1006,1 hPa 0,0 l/m 19,3 km/h (3 Bft) W-SW 248 3 min 468 W/m 5,8 C 4,0 C 30,6 km/h (5 Bft)
30.03.2016 16:36 10,1 C 74 % 1006,2 hPa 0,0 l/m 18,4 km/h (3 Bft) NW 304 3 min 459 W/m 5,7 C 4,0 C 30,6 km/h (5 Bft)
30.03.2016 16:39 10,4 C 72 % 1006,2 hPa 0,0 l/m 15,0 km/h (3 Bft) SW 216 3 min 455 W/m 5,6 C 5,6 C 33,8 km/h (5 Bft)
30.03.2016 16:42 10,6 C 71 % 1006,1 hPa 0,0 l/m 18,5 km/h (3 Bft) W 265 3 min 445 W/m 5,6 C 4,6 C 30,6 km/h (5 Bft)
30.03.2016 16:45 10,6 C 71 % 1006,2 hPa 0,0 l/m 16,0 km/h (3 Bft) W 266 3 min 439 W/m 5,6 C 5,5 C 25,7 km/h (4 Bft)
30.03.2016 16:48 10,3 C 72 % 1006,2 hPa 0,0 l/m 16,0 km/h (3 Bft) W-NW 282 3 min 431 W/m 5,5 C 5,1 C 30,6 km/h (5 Bft)
30.03.2016 16:51 10,5 C 71 % 1006,3 hPa 0,0 l/m 15,5 km/h (3 Bft) W-SW 251 3 min 425 W/m 5,5 C 5,5 C 27,4 km/h (5 Bft)
30.03.2016 16:54 10,2 C 73 % 1006,2 hPa 0,0 l/m 20,0 km/h (4 Bft) W-SW 253 3 min 417 W/m 5,6 C 3,5 C 35,4 km/h (5 Bft)
30.03.2016 16:57 10,3 C 74 % 1006,3 hPa 0,0 l/m 19,3 km/h (3 Bft) W 273 3 min 413 W/m 5,9 C 3,9 C 30,6 km/h (5 Bft)
30.03.2016 17:00 10,1 C 72 % 1006,4 hPa 0,0 l/m 17,0 km/h (3 Bft) W-SW 242 3 min 404 W/m 5,3 C 4,5 C 27,4 km/h (5 Bft)
30.03.2016 17:03 10,3 C 73 % 1006,4 hPa 0,0 l/m 16,5 km/h (3 Bft) W 265 3 min 397 W/m 5,7 C 4,9 C 30,6 km/h (5 Bft)
30.03.2016 17:06 10,3 C 74 % 1006,4 hPa 0,0 l/m 16,7 km/h (3 Bft) W 269 3 min 388 W/m 5,9 C 4,8 C 27,4 km/h (5 Bft)
30.03.2016 17:09 10,4 C 73 % 1006,4 hPa 0,0 l/m 13,5 km/h (3 Bft) W-SW 256 3 min 381 W/m 5,8 C 6,3 C 22,5 km/h (4 Bft)
30.03.2016 17:12 10,3 C 73 % 1006,5 hPa 0,0 l/m 12,4 km/h (2 Bft) W-SW 244 3 min 371 W/m 5,7 C 6,7 C 24,1 km/h (4 Bft)
30.03.2016 17:15 10,1 C 74 % 1006,4 hPa 0,0 l/m 16,9 km/h (3 Bft) W-SW 239 3 min 364 W/m 5,7 C 4,5 C 30,6 km/h (5 Bft)
30.03.2016 17:18 10,2 C 74 % 1006,4 hPa 0,0 l/m 15,8 km/h (3 Bft) W-NW 294 3 min 360 W/m 5,8 C 5,1 C 29,0 km/h (5 Bft)
30.03.2016 17:21 10,3 C 73 % 1006,6 hPa 0,0 l/m 17,1 km/h (3 Bft) W-SW 254 3 min 353 W/m 5,7 C 4,7 C 29,0 km/h (5 Bft)
30.03.2016 17:24 10,2 C 72 % 1006,5 hPa 0,0 l/m 16,4 km/h (3 Bft) W 267 3 min 346 W/m 5,4 C 4,8 C 30,6 km/h (5 Bft)
30.03.2016 17:27 10,0 C 74 % 1006,6 hPa 0,0 l/m 17,6 km/h (3 Bft) SW 218 3 min 338 W/m 5,6 C 4,1 C 27,4 km/h (5 Bft)
30.03.2016 17:30 10,0 C 73 % 1006,6 hPa 0,0 l/m 16,5 km/h (3 Bft) W-NW 294 3 min 330 W/m 5,4 C 4,5 C 25,7 km/h (4 Bft)
30.03.2016 17:33 9,8 C 75 % 1006,7 hPa 0,0 l/m 14,0 km/h (3 Bft) W 281 3 min 323 W/m 5,6 C 5,3 C 24,1 km/h (4 Bft)
30.03.2016 17:36 9,7 C 74 % 1006,6 hPa 0,0 l/m 15,6 km/h (3 Bft) W-NW 302 3 min 315 W/m 5,3 C 4,5 C 32,2 km/h (5 Bft)
30.03.2016 17:39 9,8 C 75 % 1006,7 hPa 0,0 l/m 14,9 km/h (3 Bft) W-NW 282 3 min 304 W/m 5,6 C 4,9 C 29,0 km/h (5 Bft)
30.03.2016 17:42 9,7 C 74 % 1006,7 hPa 0,0 l/m 13,8 km/h (3 Bft) W-SW 237 3 min 299 W/m 5,3 C 5,3 C 24,1 km/h (4 Bft)
30.03.2016 17:45 9,7 C 75 % 1006,7 hPa 0,0 l/m 13,6 km/h (3 Bft) W 271 3 min 292 W/m 5,5 C 5,4 C 22,5 km/h (4 Bft)
30.03.2016 17:48 9,9 C 75 % 1006,8 hPa 0,0 l/m 15,6 km/h (3 Bft) W 281 3 min 285 W/m 5,7 C 4,8 C 30,6 km/h (5 Bft)
30.03.2016 17:51 9,9 C 74 % 1006,8 hPa 0,0 l/m 17,9 km/h (3 Bft) W 259 3 min 278 W/m 5,5 C 3,9 C 33,8 km/h (5 Bft)
30.03.2016 17:54 10,0 C 74 % 1006,7 hPa 0,0 l/m 13,7 km/h (3 Bft) W-SW 257 3 min 271 W/m 5,6 C 5,7 C 22,5 km/h (4 Bft)
30.03.2016 17:57 9,7 C 74 % 1006,8 hPa 0,0 l/m 15,1 km/h (3 Bft) W-SW 251 3 min 262 W/m 5,3 C 4,7 C 27,4 km/h (5 Bft)
30.03.2016 18:00 9,8 C 74 % 1006,9 hPa 0,0 l/m 18,5 km/h (3 Bft) W 265 3 min 257 W/m 5,4 C 3,5 C 29,0 km/h (5 Bft)
30.03.2016 18:03 9,8 C 74 % 1006,8 hPa 0,0 l/m 15,5 km/h (3 Bft) W-SW 255 3 min 246 W/m 5,4 C 4,7 C 30,6 km/h (5 Bft)
30.03.2016 18:06 9,6 C 75 % 1006,9 hPa 0,0 l/m 17,5 km/h (3 Bft) W-NW 290 3 min 239 W/m 5,4 C 3,6 C 30,6 km/h (5 Bft)
30.03.2016 18:09 9,4 C 76 % 1006,9 hPa 0,0 l/m 16,8 km/h (3 Bft) W-SW 242 3 min 229 W/m 5,4 C 3,7 C 25,7 km/h (4 Bft)
30.03.2016 18:12 9,2 C 76 % 1006,9 hPa 0,0 l/m 16,8 km/h (3 Bft) W-NW 292 3 min 221 W/m 5,2 C 3,4 C 30,6 km/h (5 Bft)
30.03.2016 18:15 9,2 C 76 % 1006,9 hPa 0,0 l/m 16,9 km/h (3 Bft) W-SW 257 3 min 213 W/m 5,2 C 3,4 C 29,0 km/h (5 Bft)
30.03.2016 18:18 9,2 C 76 % 1006,9 hPa 0,0 l/m 17,1 km/h (3 Bft) W-NW 287 3 min 204 W/m 5,2 C 3,3 C 27,4 km/h (5 Bft)
30.03.2016 18:21 9,2 C 76 % 1007,0 hPa 0,0 l/m 13,5 km/h (3 Bft) SW 217 3 min 195 W/m 5,2 C 4,8 C 24,1 km/h (4 Bft)
30.03.2016 18:24 9,2 C 77 % 1007,0 hPa 0,0 l/m 15,5 km/h (3 Bft) SW 236 3 min 185 W/m 5,4 C 4,0 C 29,0 km/h (5 Bft)
30.03.2016 18:27 9,1 C 77 % 1007,0 hPa 0,0 l/m 16,9 km/h (3 Bft) W-SW 251 3 min 174 W/m 5,3 C 3,3 C 29,0 km/h (5 Bft)
30.03.2016 18:30 8,8 C 78 % 1007,0 hPa 0,0 l/m 13,5 km/h (3 Bft) W 273 3 min 165 W/m 5,2 C 4,4 C 27,4 km/h (5 Bft)
30.03.2016 18:33 8,8 C 78 % 1007,1 hPa 0,0 l/m 17,5 km/h (3 Bft) W 267 3 min 155 W/m 5,2 C 2,6 C 30,6 km/h (5 Bft)
30.03.2016 18:36 8,9 C 77 % 1007,1 hPa 0,0 l/m 16,2 km/h (3 Bft) W 271 3 min 148 W/m 5,1 C 3,3 C 25,7 km/h (4 Bft)
30.03.2016 18:39 8,8 C 78 % 1007,1 hPa 0,0 l/m 19,0 km/h (3 Bft) SW 229 3 min 139 W/m 5,2 C 2,1 C 32,2 km/h (5 Bft)
30.03.2016 18:42 8,7 C 78 % 1007,1 hPa 0,0 l/m 19,5 km/h (3 Bft) W-SW 239 3 min 132 W/m 5,1 C 1,8 C 29,0 km/h (5 Bft)
30.03.2016 18:45 8,7 C 78 % 1007,1 hPa 0,0 l/m 15,5 km/h (3 Bft) W 274 3 min 123 W/m 5,1 C 3,3 C 24,1 km/h (4 Bft)
30.03.2016 18:48 8,7 C 78 % 1007,1 hPa 0,0 l/m 16,8 km/h (3 Bft) W 259 3 min 114 W/m 5,1 C 2,8 C 27,4 km/h (5 Bft)
30.03.2016 18:51 8,6 C 78 % 1007,1 hPa 0,0 l/m 19,3 km/h (3 Bft) W 281 3 min 105 W/m 5,0 C 1,7 C 29,0 km/h (5 Bft)
30.03.2016 18:54 8,4 C 79 % 1007,1 hPa 0,0 l/m 18,9 km/h (3 Bft) W-SW 252 3 min 100 W/m 5,0 C 1,6 C 32,2 km/h (5 Bft)
30.03.2016 18:57 8,4 C 79 % 1007,2 hPa 0,0 l/m 13,7 km/h (3 Bft) W-NW 284 3 min 90 W/m 5,0 C 3,8 C 27,4 km/h (5 Bft)
30.03.2016 19:00 8,5 C 79 % 1007,1 hPa 0,0 l/m 16,2 km/h (3 Bft) W 275 3 min 86 W/m 5,1 C 2,8 C 25,7 km/h (4 Bft)
30.03.2016 19:03 8,4 C 79 % 1007,1 hPa 0,0 l/m 17,4 km/h (3 Bft) W-NW 284 3 min 77 W/m 5,0 C 2,2 C 27,4 km/h (5 Bft)
30.03.2016 19:06 8,4 C 80 % 1007,1 hPa 0,0 l/m 17,2 km/h (3 Bft) SW 230 3 min 72 W/m 5,2 C 2,3 C 32,2 km/h (5 Bft)
30.03.2016 19:09 8,2 C 80 % 1007,2 hPa 0,0 l/m 20,8 km/h (4 Bft) W 274 0 min 63 W/m 5,0 C 0,7 C 35,4 km/h (5 Bft)
30.03.2016 19:12 8,1 C 81 % 1007,2 hPa 0,0 l/m 13,1 km/h (3 Bft) W 259 0 min 58 W/m 5,0 C 3,7 C 25,7 km/h (4 Bft)
30.03.2016 19:15 8,0 C 81 % 1007,3 hPa 0,0 l/m 12,9 km/h (3 Bft) W 279 0 min 51 W/m 4,9 C 3,7 C 22,5 km/h (4 Bft)
30.03.2016 19:18 8,0 C 81 % 1007,3 hPa 0,0 l/m 12,1 km/h (2 Bft) W-NW 286 0 min 47 W/m 4,9 C 4,2 C 20,9 km/h (4 Bft)
30.03.2016 19:21 7,9 C 81 % 1007,2 hPa 0,0 l/m 18,8 km/h (3 Bft) W 266 0 min 39 W/m 4,8 C 1,0 C 25,7 km/h (4 Bft)
30.03.2016 19:24 7,8 C 82 % 1007,3 hPa 0,0 l/m 16,2 km/h (3 Bft) W 263 0 min 33 W/m 4,9 C 1,9 C 27,4 km/h (5 Bft)
30.03.2016 19:27 7,8 C 82 % 1007,4 hPa 0,0 l/m 13,4 km/h (3 Bft) SW 224 0 min 28 W/m 4,9 C 3,2 C 29,0 km/h (5 Bft)
30.03.2016 19:30 7,8 C 82 % 1007,4 hPa 0,0 l/m 16,4 km/h (3 Bft) W-SW 254 0 min 25 W/m 4,9 C 1,8 C 24,1 km/h (4 Bft)
30.03.2016 19:33 7,7 C 82 % 1007,4 hPa 0,0 l/m 12,4 km/h (2 Bft) SW 229 0 min 21 W/m 4,8 C 3,6 C 22,5 km/h (4 Bft)
30.03.2016 19:36 7,6 C 83 % 1007,4 hPa 0,0 l/m 16,2 km/h (3 Bft) W-NW 285 0 min 18 W/m 4,9 C 1,7 C 29,0 km/h (5 Bft)
30.03.2016 19:39 7,6 C 83 % 1007,5 hPa 0,0 l/m 13,8 km/h (3 Bft) W 261 0 min 12 W/m 4,9 C 2,8 C 29,0 km/h (5 Bft)
30.03.2016 19:42 7,6 C 83 % 1007,5 hPa 0,0 l/m 13,6 km/h (3 Bft) W 266 0 min 12 W/m 4,9 C 2,9 C 25,7 km/h (4 Bft)
30.03.2016 19:45 7,5 C 83 % 1007,5 hPa 0,0 l/m 18,8 km/h (3 Bft) W-NW 292 0 min 9 W/m 4,8 C 0,5 C 29,0 km/h (5 Bft)
30.03.2016 19:48 7,4 C 82 % 1007,6 hPa 0,0 l/m 18,6 km/h (3 Bft) W 272 0 min 7 W/m 4,5 C 0,5 C 29,0 km/h (5 Bft)
30.03.2016 19:51 7,4 C 83 % 1007,6 hPa 0,0 l/m 15,0 km/h (3 Bft) W 263 0 min 5 W/m 4,7 C 2,0 C 24,1 km/h (4 Bft)
30.03.2016 19:54 7,3 C 83 % 1007,7 hPa 0,0 l/m 18,1 km/h (3 Bft) W-SW 242 0 min 5 W/m 4,6 C 0,5 C 27,4 km/h (5 Bft)
30.03.2016 19:57 7,3 C 83 % 1007,7 hPa 0,0 l/m 13,6 km/h (3 Bft) SW 225 0 min 0 W/m 4,6 C 2,5 C 20,9 km/h (4 Bft)
30.03.2016 20:00 7,3 C 84 % 1007,8 hPa 0,0 l/m 18,4 km/h (3 Bft) S-SW 211 0 min 0 W/m 4,8 C 0,4 C 32,2 km/h (5 Bft)
30.03.2016 20:03 7,2 C 84 % 1007,8 hPa 0,0 l/m 14,9 km/h (3 Bft) W-SW 252 0 min 0 W/m 4,7 C 1,8 C 27,4 km/h (5 Bft)
30.03.2016 20:06 7,2 C 84 % 1007,8 hPa 0,0 l/m 14,5 km/h (3 Bft) W 261 0 min 0 W/m 4,7 C 2,0 C 25,7 km/h (4 Bft)
30.03.2016 20:09 7,2 C 84 % 1007,9 hPa 0,0 l/m 17,4 km/h (3 Bft) W 279 0 min 0 W/m 4,7 C 0,7 C 24,1 km/h (4 Bft)
30.03.2016 20:12 7,2 C 84 % 1007,8 hPa 0,0 l/m 16,1 km/h (3 Bft) W-NW 287 0 min 0 W/m 4,7 C 1,2 C 30,6 km/h (5 Bft)
30.03.2016 20:15 7,2 C 84 % 1007,9 hPa 0,0 l/m 16,4 km/h (3 Bft) W 259 0 min 0 W/m 4,7 C 1,1 C 27,4 km/h (5 Bft)
30.03.2016 20:18 7,2 C 84 % 1007,9 hPa 0,0 l/m 19,9 km/h (4 Bft) W 279 0 min 0 W/m 4,7 C -0,3 C 32,2 km/h (5 Bft)
30.03.2016 20:21 7,1 C 84 % 1007,9 hPa 0,0 l/m 17,1 km/h (3 Bft) W-SW 254 0 min 0 W/m 4,6 C 0,7 C 27,4 km/h (5 Bft)
30.03.2016 20:24 7,1 C 84 % 1008,0 hPa 0,0 l/m 17,0 km/h (3 Bft) W-SW 257 0 min 0 W/m 4,6 C 0,7 C 29,0 km/h (5 Bft)
30.03.2016 20:27 7,1 C 84 % 1008,0 hPa 0,0 l/m 15,6 km/h (3 Bft) W 271 0 min 0 W/m 4,6 C 1,3 C 27,4 km/h (5 Bft)
30.03.2016 20:30 7,1 C 85 % 1008,1 hPa 0,0 l/m 15,9 km/h (3 Bft) W-SW 238 0 min 0 W/m 4,8 C 1,2 C 30,6 km/h (5 Bft)
30.03.2016 20:33 7,1 C 84 % 1008,1 hPa 0,0 l/m 19,3 km/h (3 Bft) W-NW 288 0 min 0 W/m 4,6 C -0,2 C 30,6 km/h (5 Bft)
30.03.2016 20:36 7,0 C 84 % 1008,1 hPa 0,0 l/m 20,2 km/h (4 Bft) W-SW 242 0 min 0 W/m 4,5 C -0,7 C 35,4 km/h (5 Bft)
30.03.2016 20:39 7,0 C 84 % 1008,2 hPa 0,0 l/m 17,2 km/h (3 Bft) W 269 0 min 0 W/m 4,5 C 0,5 C 29,0 km/h (5 Bft)
30.03.2016 20:42 7,0 C 85 % 1008,2 hPa 0,0 l/m 13,3 km/h (3 Bft) SW 227 0 min 0 W/m 4,7 C 2,3 C 20,9 km/h (4 Bft)
30.03.2016 20:45 7,0 C 85 % 1008,2 hPa 0,0 l/m 13,8 km/h (3 Bft) W 281 0 min 0 W/m 4,7 C 2,1 C 25,7 km/h (4 Bft)
30.03.2016 20:48 6,9 C 84 % 1008,2 hPa 0,0 l/m 15,1 km/h (3 Bft) W-NW 282 0 min 0 W/m 4,4 C 1,3 C 25,7 km/h (4 Bft)
30.03.2016 20:51 6,9 C 84 % 1008,3 hPa 0,0 l/m 17,4 km/h (3 Bft) W 259 0 min 0 W/m 4,4 C 0,3 C 32,2 km/h (5 Bft)
30.03.2016 20:54 6,9 C 84 % 1008,3 hPa 0,0 l/m 19,3 km/h (3 Bft) W 261 0 min 0 W/m 4,4 C -0,5 C 30,6 km/h (5 Bft)
30.03.2016 20:57 6,9 C 84 % 1008,2 hPa 0,0 l/m 16,0 km/h (3 Bft) W-NW 284 0 min 0 W/m 4,4 C 0,9 C 27,4 km/h (5 Bft)
30.03.2016 21:00 6,9 C 84 % 1008,3 hPa 0,0 l/m 16,9 km/h (3 Bft) W-NW 286 0 min 0 W/m 4,4 C 0,5 C 30,6 km/h (5 Bft)
30.03.2016 21:03 6,9 C 84 % 1008,4 hPa 0,0 l/m 14,0 km/h (3 Bft) W-NW 298 0 min 0 W/m 4,4 C 1,9 C 25,7 km/h (4 Bft)
30.03.2016 21:06 6,9 C 84 % 1008,4 hPa 0,0 l/m 14,5 km/h (3 Bft) W-NW 290 0 min 0 W/m 4,4 C 1,6 C 27,4 km/h (5 Bft)
30.03.2016 21:09 6,9 C 84 % 1008,4 hPa 0,0 l/m 17,7 km/h (3 Bft) W-SW 248 0 min 0 W/m 4,4 C 0,2 C 27,4 km/h (5 Bft)
30.03.2016 21:12 6,9 C 84 % 1008,4 hPa 0,0 l/m 13,8 km/h (3 Bft) W 276 0 min 0 W/m 4,4 C 2,0 C 24,1 km/h (4 Bft)
30.03.2016 21:15 6,8 C 84 % 1008,4 hPa 0,0 l/m 13,4 km/h (3 Bft) SW 224 0 min 0 W/m 4,3 C 2,1 C 20,9 km/h (4 Bft)
30.03.2016 21:18 6,8 C 84 % 1008,5 hPa 0,0 l/m 14,7 km/h (3 Bft) SW 236 0 min 0 W/m 4,3 C 1,4 C 29,0 km/h (5 Bft)
30.03.2016 21:21 6,8 C 84 % 1008,4 hPa 0,0 l/m 16,8 km/h (3 Bft) W 273 0 min 0 W/m 4,3 C 0,4 C 27,4 km/h (5 Bft)
30.03.2016 21:24 6,8 C 84 % 1008,4 hPa 0,0 l/m 14,5 km/h (3 Bft) W-SW 247 0 min 0 W/m 4,3 C 1,5 C 22,5 km/h (4 Bft)
30.03.2016 21:27 6,8 C 84 % 1008,5 hPa 0,0 l/m 15,0 km/h (3 Bft) W-NW 288 0 min 0 W/m 4,3 C 1,3 C 27,4 km/h (5 Bft)
30.03.2016 21:30 6,8 C 84 % 1008,5 hPa 0,0 l/m 14,5 km/h (3 Bft) W 260 0 min 0 W/m 4,3 C 1,5 C 27,4 km/h (5 Bft)
30.03.2016 21:33 6,8 C 84 % 1008,6 hPa 0,0 l/m 12,9 km/h (3 Bft) W 270 0 min 0 W/m 4,3 C 2,3 C 20,9 km/h (4 Bft)
30.03.2016 21:36 6,8 C 84 % 1008,6 hPa 0,0 l/m 15,3 km/h (3 Bft) W-NW 301 0 min 0 W/m 4,3 C 1,1 C 27,4 km/h (5 Bft)
30.03.2016 21:39 6,8 C 85 % 1008,6 hPa 0,0 l/m 12,2 km/h (2 Bft) W-NW 283 0 min 0 W/m 4,5 C 2,7 C 20,9 km/h (4 Bft)
30.03.2016 21:42 6,8 C 85 % 1008,6 hPa 0,0 l/m 16,1 km/h (3 Bft) W-SW 246 0 min 0 W/m 4,5 C 0,7 C 24,1 km/h (4 Bft)
30.03.2016 21:45 6,8 C 85 % 1008,7 hPa 0,0 l/m 13,5 km/h (3 Bft) W-NW 282 0 min 0 W/m 4,5 C 2,0 C 20,9 km/h (4 Bft)
30.03.2016 21:48 6,8 C 85 % 1008,7 hPa 0,0 l/m 13,5 km/h (3 Bft) W 274 0 min 0 W/m 4,5 C 2,0 C 20,9 km/h (4 Bft)
30.03.2016 21:51 6,8 C 85 % 1008,7 hPa 0,0 l/m 13,6 km/h (3 Bft) W-SW 242 0 min 0 W/m 4,5 C 2,0 C 24,1 km/h (4 Bft)
30.03.2016 21:54 6,7 C 85 % 1008,8 hPa 0,0 l/m 14,9 km/h (3 Bft) W-SW 250 0 min 0 W/m 4,4 C 1,2 C 25,7 km/h (4 Bft)
30.03.2016 21:57 6,7 C 85 % 1008,7 hPa 0,0 l/m 14,6 km/h (3 Bft) SW 214 0 min 0 W/m 4,4 C 1,3 C 25,7 km/h (4 Bft)
30.03.2016 22:00 6,7 C 85 % 1008,7 hPa 0,0 l/m 12,7 km/h (3 Bft) W-SW 245 0 min 0 W/m 4,4 C 2,3 C 25,7 km/h (4 Bft)
30.03.2016 22:03 6,7 C 85 % 1008,8 hPa 0,0 l/m 16,1 km/h (3 Bft) W 262 0 min 0 W/m 4,4 C 0,6 C 29,0 km/h (5 Bft)
30.03.2016 22:06 6,7 C 85 % 1008,8 hPa 0,0 l/m 15,6 km/h (3 Bft) W-SW 251 0 min 0 W/m 4,4 C 0,9 C 25,7 km/h (4 Bft)
30.03.2016 22:09 6,7 C 85 % 1008,8 hPa 0,0 l/m 14,5 km/h (3 Bft) W 273 0 min 0 W/m 4,4 C 1,4 C 22,5 km/h (4 Bft)
30.03.2016 22:12 6,7 C 85 % 1008,8 hPa 0,0 l/m 14,3 km/h (3 Bft) W-SW 254 0 min 0 W/m 4,4 C 1,5 C 20,9 km/h (4 Bft)
30.03.2016 22:15 6,7 C 85 % 1008,8 hPa 0,0 l/m 15,6 km/h (3 Bft) SW 233 0 min 0 W/m 4,4 C 0,9 C 30,6 km/h (5 Bft)
30.03.2016 22:18 6,6 C 85 % 1008,8 hPa 0,0 l/m 16,0 km/h (3 Bft) W-SW 238 0 min 0 W/m 4,3 C 0,5 C 25,7 km/h (4 Bft)
30.03.2016 22:21 6,6 C 85 % 1008,9 hPa 0,0 l/m 13,3 km/h (3 Bft) W-SW 256 0 min 0 W/m 4,3 C 1,9 C 22,5 km/h (4 Bft)
30.03.2016 22:24 6,6 C 86 % 1008,9 hPa 0,0 l/m 15,8 km/h (3 Bft) W-SW 250 0 min 0 W/m 4,4 C 0,6 C 24,1 km/h (4 Bft)
30.03.2016 22:27 6,6 C 86 % 1008,9 hPa 0,0 l/m 13,1 km/h (3 Bft) W 265 0 min 0 W/m 4,4 C 2,0 C 20,9 km/h (4 Bft)
30.03.2016 22:30 6,6 C 86 % 1009,0 hPa 0,0 l/m 13,7 km/h (3 Bft) W-SW 244 0 min 0 W/m 4,4 C 1,7 C 20,9 km/h (4 Bft)
30.03.2016 22:33 6,6 C 86 % 1009,0 hPa 0,0 l/m 14,5 km/h (3 Bft) SW 235 0 min 0 W/m 4,4 C 1,3 C 22,5 km/h (4 Bft)
30.03.2016 22:36 6,6 C 86 % 1008,9 hPa 0,0 l/m 11,6 km/h (2 Bft) SW 225 0 min 0 W/m 4,4 C 2,8 C 20,9 km/h (4 Bft)
30.03.2016 22:39 6,5 C 86 % 1008,9 hPa 0,0 l/m 16,0 km/h (3 Bft) W-SW 244 0 min 0 W/m 4,3 C 0,4 C 30,6 km/h (5 Bft)
30.03.2016 22:42 6,5 C 87 % 1009,0 hPa 0,0 l/m 12,7 km/h (3 Bft) W-SW 257 0 min 0 W/m 4,5 C 2,1 C 17,7 km/h (3 Bft)
30.03.2016 22:45 6,5 C 87 % 1009,0 hPa 0,0 l/m 13,0 km/h (3 Bft) W-NW 295 0 min 0 W/m 4,5 C 1,9 C 25,7 km/h (4 Bft)
30.03.2016 22:48 6,5 C 87 % 1009,1 hPa 0,0 l/m 14,5 km/h (3 Bft) W 261 0 min 0 W/m 4,5 C 1,1 C 20,9 km/h (4 Bft)
30.03.2016 22:51 6,4 C 87 % 1009,1 hPa 0,0 l/m 13,7 km/h (3 Bft) W 266 0 min 0 W/m 4,4 C 1,4 C 19,3 km/h (3 Bft)
30.03.2016 22:54 6,4 C 87 % 1009,2 hPa 0,0 l/m 15,2 km/h (3 Bft) SW 225 0 min 0 W/m 4,4 C 0,7 C 25,7 km/h (4 Bft)
30.03.2016 22:57 6,4 C 87 % 1009,1 hPa 0,0 l/m 15,4 km/h (3 Bft) W 272 0 min 0 W/m 4,4 C 0,6 C 29,0 km/h (5 Bft)
30.03.2016 23:00 6,4 C 87 % 1009,1 hPa 0,0 l/m 16,3 km/h (3 Bft) W 264 0 min 0 W/m 4,4 C 0,2 C 27,4 km/h (5 Bft)
30.03.2016 23:03 6,4 C 87 % 1009,1 hPa 0,0 l/m 12,4 km/h (2 Bft) SW 224 0 min 0 W/m 4,4 C 2,1 C 19,3 km/h (3 Bft)
30.03.2016 23:06 6,4 C 87 % 1009,2 hPa 0,0 l/m 14,7 km/h (3 Bft) W 268 0 min 0 W/m 4,4 C 0,9 C 24,1 km/h (4 Bft)
30.03.2016 23:09 6,4 C 87 % 1009,2 hPa 0,0 l/m 12,3 km/h (2 Bft) W 275 0 min 0 W/m 4,4 C 2,2 C 22,5 km/h (4 Bft)
30.03.2016 23:12 6,4 C 87 % 1009,2 hPa 0,0 l/m 13,7 km/h (3 Bft) W 264 0 min 0 W/m 4,4 C 1,4 C 22,5 km/h (4 Bft)
30.03.2016 23:15 6,4 C 87 % 1009,2 hPa 0,0 l/m 15,0 km/h (3 Bft) W-SW 240 0 min 0 W/m 4,4 C 0,8 C 24,1 km/h (4 Bft)
30.03.2016 23:18 6,4 C 87 % 1009,1 hPa 0,0 l/m 15,2 km/h (3 Bft) W-NW 289 0 min 0 W/m 4,4 C 0,7 C 25,7 km/h (4 Bft)
30.03.2016 23:21 6,4 C 87 % 1009,2 hPa 0,0 l/m 12,8 km/h (3 Bft) W-SW 250 0 min 0 W/m 4,4 C 1,9 C 20,9 km/h (4 Bft)
30.03.2016 23:24 6,4 C 87 % 1009,1 hPa 0,0 l/m 13,4 km/h (3 Bft) W 265 0 min 0 W/m 4,4 C 1,6 C 19,3 km/h (3 Bft)
30.03.2016 23:27 6,4 C 87 % 1009,2 hPa 0,0 l/m 11,5 km/h (2 Bft) W-SW 257 0 min 0 W/m 4,4 C 2,7 C 17,7 km/h (3 Bft)
30.03.2016 23:30 6,4 C 88 % 1009,1 hPa 0,0 l/m 13,3 km/h (3 Bft) W-SW 245 0 min 0 W/m 4,6 C 1,6 C 24,1 km/h (4 Bft)
30.03.2016 23:33 6,3 C 88 % 1009,2 hPa 0,0 l/m 16,0 km/h (3 Bft) W-SW 256 0 min 0 W/m 4,5 C 0,2 C 24,1 km/h (4 Bft)
30.03.2016 23:36 6,3 C 88 % 1009,2 hPa 0,0 l/m 13,5 km/h (3 Bft) W 267 0 min 0 W/m 4,5 C 1,4 C 20,9 km/h (4 Bft)
30.03.2016 23:39 6,3 C 87 % 1009,3 hPa 0,0 l/m 12,4 km/h (2 Bft) W 267 0 min 0 W/m 4,3 C 2,0 C 24,1 km/h (4 Bft)
30.03.2016 23:42 6,3 C 87 % 1009,3 hPa 0,0 l/m 12,6 km/h (3 Bft) W-SW 240 0 min 0 W/m 4,3 C 1,9 C 22,5 km/h (4 Bft)
30.03.2016 23:45 6,3 C 87 % 1009,3 hPa 0,0 l/m 10,3 km/h (2 Bft) W-SW 244 0 min 0 W/m 4,3 C 3,3 C 19,3 km/h (3 Bft)
30.03.2016 23:48 6,3 C 87 % 1009,4 hPa 0,0 l/m 14,2 km/h (3 Bft) SW 236 0 min 0 W/m 4,3 C 1,1 C 24,1 km/h (4 Bft)
30.03.2016 23:51 6,3 C 87 % 1009,3 hPa 0,0 l/m 12,3 km/h (2 Bft) W-SW 249 0 min 0 W/m 4,3 C 2,1 C 19,3 km/h (3 Bft)
30.03.2016 23:54 6,3 C 87 % 1009,3 hPa 0,0 l/m 11,1 km/h (2 Bft) SW 229 0 min 0 W/m 4,3 C 2,8 C 19,3 km/h (3 Bft)
30.03.2016 23:57 6,3 C 87 % 1009,3 hPa 0,0 l/m 11,6 km/h (2 Bft) W 274 0 min 0 W/m 4,3 C 2,5 C 29,0 km/h (5 Bft)
_ Min-Zeit 01:00 12:12 06:12 - 01:00 - - - - 01:00 09:30 01:15
Minimum _ 3,7 C 71 % 1000,9 hPa - 3,2 km/h (1 Bft) - - - - 3,0 C -1,6 C 8,0 km/h (2 Bft)
_ Max-Zeit 16:21 06:54 23:48 05:30 10:27 - - 10:30 12:24 13:54 15:30 11:36
Maximum _ 11,2 C 97 % 1009,4 hPa 0,6 l/m 23,4 km/h
SW (4 Bft)
- - 3 min 751 W/m 7,0 C 8,1 C 46,7 km/h
W-NW (6 Bft)
Durchschnitt _ 7,0 C 86 % 1005,1 hPa #2,8 l/m 13,6 km/h (3 Bft) W-SW - #5:18 h 232 W/m 4,8 C 2,7 C 23,9 km/h (4 Bft)
2016 Cux-Wetter.de -Die Nutzung der Wetterdaten nur mit ausdrcklicher Genehmigung